Terminal Aerodrome Forecast
Issued by NWS

Home | Current Version | Previous Version | Text Only | Print | Product List | Glossary On
Versions: 1 2 3 4 5 6 7 8 9 10 11 12 13 14 15 16 17 18 19 20 21 22 23 24 25
000
FTUS45 KABQ 162300
TAFROW
TAF
KROW 162332Z 1700/1724 18005KT P6SM VCSH FEW007 BKN080 OVC120
     FM170500 21005KT 4SM BR OVC015
      TEMPO 1706/1709 2SM BR OVC004
     FM171100 13003KT 4SM -SHRA BR OVC050
     FM171500 18005KT 6SM BR OVC007
     FM171700 15005KT P6SM SCT015 OVC040=

USA.gov is the U.S. government's official web portal to all federal, state and local government web resources and services.